createdAt,value
2022-11-29T00:01:09.493Z,91.2
2022-11-29T00:09:27.671Z,92.7
2022-11-29T00:15:39.207Z,109.8
2022-11-29T00:21:53.571Z,110.8
2022-11-29T00:23:57.419Z,105.3
2022-11-29T00:26:01.261Z,109
2022-11-29T00:28:05.149Z,107
2022-11-29T00:30:08.940Z,97.2
2022-11-29T00:32:12.806Z,131
2022-11-29T00:34:16.646Z,78.7
2022-11-29T00:40:30.978Z,97.5
2022-11-29T00:46:42.530Z,106.9
2022-11-29T00:48:46.352Z,78.3
2022-11-29T00:50:53.026Z,110.2
2022-11-29T00:52:56.834Z,105.3
2022-11-29T00:55:00.679Z,77.2
2022-11-29T00:56:03.994Z,100.1
2022-11-29T01:00:11.714Z,91.7
2022-11-29T01:04:22.195Z,135.7
2022-11-29T01:06:26.032Z,107.5
2022-11-29T01:08:29.877Z,108.6
2022-11-29T01:10:33.720Z,103.1
2022-11-29T01:12:37.557Z,93.8
2022-11-29T01:14:41.656Z,100.8
2022-11-29T01:16:45.295Z,124.6
2022-11-29T01:27:07.279Z,117.5
2022-11-29T01:29:11.119Z,86.2
2022-11-29T01:31:15.025Z,91.6
2022-11-29T01:33:21.631Z,108.2
2022-11-29T01:35:25.470Z,94.9
2022-11-29T01:37:29.310Z,80.6
2022-11-29T01:39:33.145Z,92
2022-11-29T01:41:36.982Z,108.2
2022-11-29T01:43:40.830Z,76.8
2022-11-29T01:45:44.907Z,128.8
2022-11-29T01:47:51.356Z,89.1
2022-11-29T01:49:55.170Z,105.3
2022-11-29T01:51:59.029Z,94.6
2022-11-29T01:54:22.916Z,121.9
2022-11-29T01:56:26.814Z,100.8
2022-11-29T01:58:30.633Z,99
2022-11-29T02:00:37.271Z,98.4
2022-11-29T02:02:41.157Z,79.1
2022-11-29T02:04:45.302Z,131.5
2022-11-29T02:06:48.811Z,120.2
2022-11-29T02:15:06.982Z,138.7
2022-11-29T02:17:10.820Z,94.6
2022-11-29T02:19:14.664Z,117
2022-11-29T02:21:18.524Z,99.3
2022-11-29T02:23:22.370Z,108.5
2022-11-29T02:25:26.186Z,118.3
2022-11-29T02:27:30.036Z,115.5
2022-11-29T02:29:36.730Z,119.5
2022-11-29T02:31:40.539Z,121.1
2022-11-29T02:33:44.387Z,118.9
2022-11-29T02:35:48.229Z,124.7
2022-11-29T02:37:52.088Z,105.2
2022-11-29T02:39:55.968Z,105
2022-11-29T02:41:59.840Z,133.8
2022-11-29T02:48:14.172Z,96.3
2022-11-29T02:49:17.530Z,107.2
2022-11-29T02:51:21.355Z,81.9
2022-11-29T02:53:25.290Z,85.3
2022-11-29T02:55:29.173Z,103.7
2022-11-29T02:57:35.790Z,87.2
2022-11-29T02:59:39.623Z,79.9
2022-11-29T03:01:43.513Z,101.7
2022-11-29T03:03:47.340Z,100.5
2022-11-29T03:05:51.180Z,127.2
2022-11-29T03:07:55.046Z,108.7
2022-11-29T03:12:05.513Z,116.3
2022-11-29T03:14:09.386Z,84.5
2022-11-29T03:16:13.246Z,93.8
2022-11-29T03:18:17.084Z,97.9
2022-11-29T03:20:20.896Z,117.4
2022-11-29T03:22:24.738Z,99.3
2022-11-29T03:24:28.587Z,100.3
2022-11-29T03:26:34.957Z,109.7
2022-11-29T03:28:38.785Z,121.5
2022-11-29T03:30:42.701Z,91.4
2022-11-29T03:32:46.481Z,100.1
2022-11-29T03:34:55.704Z,108.4
2022-11-29T03:36:54.151Z,106
2022-11-29T03:38:58.025Z,134.1
2022-11-29T03:41:04.641Z,95.2
2022-11-29T03:43:08.515Z,112.5
2022-11-29T03:45:12.342Z,128.3
2022-11-29T03:46:15.673Z,132.8
2022-11-29T03:50:23.342Z,119.6
2022-11-29T03:52:27.184Z,103.8
2022-11-29T03:54:33.838Z,98
2022-11-29T03:56:37.674Z,84.7
2022-11-29T03:58:41.518Z,106.3
2022-11-29T04:00:45.379Z,114.1
2022-11-29T04:02:49.267Z,90.2
2022-11-29T04:04:53.076Z,101.2
2022-11-29T04:06:56.917Z,96.7
2022-11-29T04:09:03.572Z,98.9
2022-11-29T04:11:07.399Z,78
2022-11-29T04:13:11.256Z,102.6
2022-11-29T04:15:15.722Z,111.5
2022-11-29T04:19:22.777Z,86.9
2022-11-29T04:23:33.288Z,120.3
2022-11-29T04:25:37.138Z,83.6
2022-11-29T04:27:40.957Z,85.1
2022-11-29T04:31:48.649Z,108.8
2022-11-29T04:33:52.485Z,101.7
2022-11-29T04:35:56.314Z,97.4
2022-11-29T04:38:02.999Z,110.3
2022-11-29T04:40:06.842Z,114.6
2022-11-29T04:42:10.668Z,100.7
2022-11-29T04:43:13.999Z,106
2022-11-29T04:45:17.838Z,83.8
2022-11-29T04:47:23.169Z,95.4
2022-11-29T04:49:26.994Z,107.7
2022-11-29T04:51:33.656Z,144.6
2022-11-29T04:53:37.500Z,108.9
2022-11-29T04:55:41.343Z,113.1
2022-11-29T04:57:45.167Z,104.4
2022-11-29T04:59:49.009Z,132
2022-11-29T05:01:52.907Z,106.3
2022-11-29T05:03:57.226Z,164.3
2022-11-29T05:06:03.394Z,115.7
2022-11-29T05:08:07.205Z,142.9
2022-11-29T05:10:11.043Z,104.9
2022-11-29T05:20:33.293Z,116.7
2022-11-29T05:24:40.836Z,111.5
2022-11-29T05:26:44.683Z,128.4
2022-11-29T05:28:48.516Z,67.9
2022-11-29T05:30:52.390Z,132.6
2022-11-29T05:35:02.925Z,77.3
2022-11-29T05:41:32.558Z,56.5
2022-11-29T05:45:40.352Z,82.1
2022-11-29T05:47:47.003Z,77
2022-11-29T05:49:50.849Z,83.3
2022-11-29T05:51:54.675Z,87.1
2022-11-29T05:53:58.606Z,99.6
2022-11-29T05:56:02.417Z,46.3
2022-11-29T05:58:06.275Z,71.9
2022-11-29T06:00:10.125Z,70.8
2022-11-29T06:02:16.902Z,74.1
2022-11-29T06:04:20.694Z,66.7
2022-11-29T06:10:32.398Z,74
2022-11-29T06:14:40.055Z,81.9
2022-11-29T06:16:46.704Z,133.9
2022-11-29T06:18:50.652Z,132.6
2022-11-29T06:20:54.585Z,106.9
2022-11-29T06:22:58.539Z,90.4
2022-11-29T06:25:02.357Z,69.9
2022-11-29T06:27:06.198Z,114.7
2022-11-29T06:29:10.007Z,66.7
2022-11-29T06:33:20.518Z,119.5
2022-11-29T06:35:24.365Z,65.1
2022-11-29T06:36:27.673Z,66.4
2022-11-29T06:38:31.513Z,96
2022-11-29T06:40:35.355Z,79.5
2022-11-29T06:42:39.318Z,67.5
2022-11-29T06:44:46.219Z,52.2
2022-11-29T06:46:49.825Z,65.1
2022-11-29T06:48:56.571Z,59.5
2022-11-29T06:50:57.467Z,55.8
2022-11-29T06:53:01.315Z,67.6
2022-11-29T06:55:05.147Z,45.8
2022-11-29T06:57:09.017Z,44
2022-11-29T07:03:23.309Z,50.7
2022-11-29T07:07:31.033Z,47.8
2022-11-29T07:09:34.834Z,53.9
2022-11-29T07:11:38.672Z,47.5
2022-11-29T07:17:52.969Z,66
2022-11-29T07:19:56.817Z,36.8
2022-11-29T07:22:00.657Z,38.3
2022-11-29T07:24:04.576Z,37.1
2022-11-29T07:26:08.432Z,34.2
2022-11-29T07:28:15.080Z,48.7
2022-11-29T07:30:18.920Z,41.9
2022-11-29T07:32:22.795Z,44.6
2022-11-29T07:33:26.200Z,34.4
2022-11-29T07:35:30.161Z,44.5
2022-11-29T07:37:33.968Z,48.7
2022-11-29T07:39:37.814Z,42.4
2022-11-29T07:41:44.467Z,38
2022-11-29T07:43:48.299Z,29.8
2022-11-29T07:45:52.112Z,41.8
2022-11-29T07:47:55.955Z,46
2022-11-29T07:49:59.752Z,23.2
2022-11-29T07:52:03.611Z,36.4
2022-11-29T07:54:07.431Z,30.1
2022-11-29T07:56:14.208Z,33.8
2022-11-29T07:58:18.137Z,49.7
2022-11-29T08:00:21.820Z,40.1
2022-11-29T08:02:25.665Z,43.8
2022-11-29T08:04:29.476Z,47.6
2022-11-29T08:06:33.329Z,52.9
2022-11-29T08:08:43.552Z,51.1
2022-11-29T08:10:43.780Z,39.2
2022-11-29T08:12:47.598Z,35.2
2022-11-29T08:14:51.416Z,54.2
2022-11-29T08:16:55.250Z,40.6
2022-11-29T08:18:59.109Z,36.1
2022-11-29T08:21:02.932Z,35.9
2022-11-29T08:23:06.740Z,50.1
2022-11-29T08:25:13.472Z,68
2022-11-29T08:27:17.326Z,41
2022-11-29T08:29:21.183Z,39
2022-11-29T08:34:32.126Z,47.5
2022-11-29T08:36:35.983Z,40.1
2022-11-29T08:38:42.587Z,34.5
2022-11-29T08:40:46.429Z,33.1
2022-11-29T08:42:50.257Z,34.1
2022-11-29T08:44:54.178Z,31.1
2022-11-29T08:46:58.016Z,37.5
2022-11-29T08:49:01.833Z,49.2
2022-11-29T08:51:05.702Z,36.8
2022-11-29T08:53:12.348Z,49.6
2022-11-29T08:55:16.177Z,30.5
2022-11-29T08:59:23.805Z,47.1
2022-11-29T09:01:27.683Z,45
2022-11-29T09:03:31.477Z,43.8
2022-11-29T09:05:35.317Z,45.9
2022-11-29T09:07:42.005Z,50.7
2022-11-29T09:09:45.794Z,30.6
2022-11-29T09:11:49.895Z,41
2022-11-29T09:13:53.454Z,61.1
2022-11-29T09:15:57.303Z,39.3
2022-11-29T09:18:01.132Z,51.6
2022-11-29T09:20:04.945Z,51.8
2022-11-29T09:22:11.616Z,47.4
2022-11-29T09:24:15.440Z,23
2022-11-29T09:26:19.268Z,34.3
2022-11-29T09:28:37.406Z,41.4
2022-11-29T09:45:10.896Z,49.7
2022-11-29T09:49:21.422Z,33.3
2022-11-29T09:51:25.239Z,52
2022-11-29T09:53:29.065Z,20.7
2022-11-29T09:57:36.777Z,31.8
2022-11-29T10:05:54.928Z,30.6
2022-11-29T10:07:58.833Z,60.4
2022-11-29T10:10:02.632Z,40.1
2022-11-29T10:20:24.702Z,67.7
2022-11-29T10:23:31.871Z,51.6
2022-11-29T10:25:35.732Z,55.2
2022-11-29T10:27:39.576Z,53.1
2022-11-29T10:29:43.438Z,46
2022-11-29T10:31:50.128Z,50.7
2022-11-29T10:33:53.981Z,51.8
2022-11-29T10:35:57.815Z,43.1
2022-11-29T10:38:30.369Z,49.7
2022-11-29T10:40:05.547Z,26.4
2022-11-29T10:42:09.436Z,40.4
2022-11-29T10:44:14.778Z,43.3
2022-11-29T10:46:21.469Z,36.7
2022-11-29T10:48:25.290Z,43.8
2022-11-29T10:50:29.160Z,61.3
2022-11-29T10:52:33.020Z,45.9
2022-11-29T10:54:36.878Z,45.5
2022-11-29T10:56:40.738Z,50.4
2022-11-29T10:58:44.576Z,34.3
2022-11-29T11:00:51.327Z,51.1
2022-11-29T11:02:55.136Z,52.5
2022-11-29T11:04:58.997Z,43.6
2022-11-29T11:07:02.862Z,61.7
2022-11-29T11:09:06.724Z,54.2
2022-11-29T11:11:10.605Z,41
2022-11-29T11:13:14.476Z,44.1
2022-11-29T11:15:21.155Z,66.7
2022-11-29T11:19:28.872Z,49.8
2022-11-29T11:20:32.232Z,51.9
2022-11-29T11:26:43.828Z,42.5
2022-11-29T11:28:50.494Z,50.3
2022-11-29T11:30:54.438Z,45.2
2022-11-29T11:32:58.244Z,40
2022-11-29T11:37:05.999Z,45.5
2022-11-29T11:39:09.884Z,32.9
2022-11-29T11:41:13.739Z,40.3
2022-11-29T11:45:24.309Z,67.3
2022-11-29T11:47:28.195Z,40.3
2022-11-29T11:51:35.941Z,43
2022-11-29T11:55:43.709Z,41.7
2022-11-29T11:59:54.295Z,45.9
2022-11-29T12:01:58.159Z,40.1
2022-11-29T12:06:05.942Z,33
2022-11-29T12:08:09.929Z,35.1
2022-11-29T12:10:13.739Z,37.5
2022-11-29T12:12:20.398Z,48.4
2022-11-29T12:14:24.274Z,38.5
2022-11-29T12:16:28.191Z,53.9
2022-11-29T12:19:35.408Z,30.5
2022-11-29T12:21:39.262Z,31.1
2022-11-29T12:23:43.123Z,37.2
2022-11-29T12:25:49.876Z,40
2022-11-29T12:27:53.691Z,31.3
2022-11-29T12:29:57.562Z,47.3
2022-11-29T12:32:01.430Z,37.8
2022-11-29T12:34:05.317Z,26.6
2022-11-29T12:36:09.193Z,33.4
2022-11-29T12:38:13.067Z,35.1
2022-11-29T12:40:19.727Z,36.7
2022-11-29T12:42:23.605Z,28.4
2022-11-29T12:44:27.485Z,24.7
2022-11-29T12:46:31.406Z,36.6
2022-11-29T12:48:35.229Z,38.4
2022-11-29T12:50:39.109Z,30.6
2022-11-29T12:52:42.989Z,41.6
2022-11-29T12:54:49.651Z,29.1
2022-11-29T12:56:53.547Z,25.5
2022-11-29T12:58:57.414Z,47.7
2022-11-29T13:03:05.201Z,35.4
2022-11-29T13:09:19.587Z,29.8
2022-11-29T13:11:23.487Z,25
2022-11-29T13:13:27.364Z,39.8
2022-11-29T13:15:57.018Z,54.3
2022-11-29T13:18:00.826Z,22.5
2022-11-29T13:20:04.717Z,29.6
2022-11-29T13:22:11.390Z,23.9
2022-11-29T13:24:15.270Z,40.1
2022-11-29T13:26:19.135Z,29.7
2022-11-29T13:28:23.023Z,27.4
2022-11-29T13:30:26.911Z,31.5
2022-11-29T13:32:30.766Z,23.4
2022-11-29T13:34:34.639Z,20.1
2022-11-29T13:36:41.329Z,26.4
2022-11-29T13:38:45.220Z,24.5
2022-11-29T13:40:49.097Z,29.9
2022-11-29T13:44:56.826Z,22.1
2022-11-29T13:47:00.694Z,21.7
2022-11-29T13:49:04.570Z,18.6
2022-11-29T13:51:11.276Z,19.6
2022-11-29T13:53:15.130Z,36.8
2022-11-29T13:55:18.958Z,32.8
2022-11-29T13:57:22.836Z,24.7
2022-11-29T13:59:26.706Z,20.8
2022-11-29T14:01:30.666Z,33.5
2022-11-29T14:03:34.408Z,28.8
2022-11-29T14:05:41.076Z,27
2022-11-29T14:07:44.979Z,38.1
2022-11-29T14:09:48.830Z,43.7
2022-11-29T14:10:52.141Z,25.7
2022-11-29T14:12:56.022Z,39
2022-11-29T14:17:03.712Z,36.4
2022-11-29T14:19:10.394Z,23.2
2022-11-29T14:21:14.262Z,32.6
2022-11-29T14:23:18.103Z,31.4
2022-11-29T14:27:25.791Z,34.4
2022-11-29T14:29:29.646Z,36.5
2022-11-29T14:31:33.547Z,26.8
2022-11-29T14:33:40.179Z,36.5
2022-11-29T14:35:44.049Z,33.3
2022-11-29T14:37:47.931Z,33.9
2022-11-29T14:41:55.628Z,30.7
2022-11-29T14:43:59.547Z,37.5
2022-11-29T14:50:13.898Z,27.2
2022-11-29T14:52:17.754Z,28.4
2022-11-29T14:56:25.492Z,27.7
2022-11-29T15:00:33.198Z,40.5
2022-11-29T15:02:39.924Z,44.3
2022-11-29T15:04:43.961Z,40.3
2022-11-29T15:06:52.864Z,29.4
2022-11-29T15:07:51.068Z,28.4
2022-11-29T15:09:54.814Z,40
2022-11-29T15:11:58.676Z,25.1
2022-11-29T15:14:02.558Z,47.2
2022-11-29T15:16:09.538Z,31.9
2022-11-29T15:18:13.102Z,34.9
2022-11-29T15:20:16.966Z,33.3
2022-11-29T15:22:20.833Z,47.2
2022-11-29T15:24:28.339Z,31.2
2022-11-29T15:26:28.563Z,33.8
2022-11-29T15:28:32.417Z,26.6
2022-11-29T15:30:39.101Z,32.4
2022-11-29T15:32:42.976Z,36.5
2022-11-29T15:34:47.025Z,33.7
2022-11-29T15:36:50.702Z,32.3
2022-11-29T15:38:54.578Z,39.6
2022-11-29T15:40:58.418Z,42
2022-11-29T15:43:02.277Z,30.8
2022-11-29T15:53:24.394Z,36.8
2022-11-29T15:55:28.270Z,26.7
2022-11-29T15:57:32.128Z,22.1
2022-11-29T15:59:38.808Z,30.6
2022-11-29T16:01:42.750Z,43.2
2022-11-29T16:03:46.521Z,32.2
2022-11-29T16:04:50.332Z,39.1
2022-11-29T16:06:53.711Z,27.4
2022-11-29T16:08:57.598Z,45.8
2022-11-29T16:11:01.446Z,34.2
2022-11-29T16:13:08.120Z,28.7
2022-11-29T16:17:15.887Z,30.8
2022-11-29T16:19:19.729Z,35
2022-11-29T16:23:27.461Z,21.8
2022-11-29T16:27:37.987Z,33.2
2022-11-29T16:29:41.843Z,25.1
2022-11-29T16:33:49.563Z,29.2
2022-11-29T16:35:53.440Z,27.2
2022-11-29T16:37:57.291Z,34.5
2022-11-29T16:40:01.165Z,29.8
2022-11-29T16:42:09.343Z,25.5
2022-11-29T16:44:13.199Z,40.1
2022-11-29T16:46:17.106Z,32.2
2022-11-29T16:48:20.923Z,36
2022-11-29T16:50:24.787Z,37
2022-11-29T16:52:28.628Z,27.4
2022-11-29T16:54:32.485Z,33.5
2022-11-29T16:56:39.165Z,31.3
2022-11-29T16:59:17.372Z,24.7
2022-11-29T17:00:47.002Z,38.6
2022-11-29T17:03:16.500Z,42.2
2022-11-29T17:05:20.380Z,36.9
2022-11-29T17:09:30.915Z,29.8
2022-11-29T17:13:38.632Z,33.4
2022-11-29T17:15:42.491Z,39
2022-11-29T17:17:46.345Z,29.7
2022-11-29T17:19:50.204Z,38.2
2022-11-29T17:21:54.067Z,40.3
2022-11-29T17:24:00.724Z,37.3
2022-11-29T17:26:04.578Z,58.1
2022-11-29T17:28:08.441Z,32.2
2022-11-29T17:30:12.305Z,41.6
2022-11-29T17:32:16.171Z,46.7
2022-11-29T17:34:20.018Z,36.3
2022-11-29T17:36:23.878Z,45.6
2022-11-29T17:38:30.531Z,35.8
2022-11-29T17:40:34.388Z,43.1
2022-11-29T17:42:38.272Z,57.7
2022-11-29T17:44:42.126Z,33.7
2022-11-29T17:57:08.036Z,38.4
2022-11-29T18:02:19.137Z,29.5
2022-11-29T18:04:22.952Z,39.1
2022-11-29T18:06:29.609Z,41.1
2022-11-29T18:08:33.461Z,35.9
2022-11-29T18:10:37.318Z,35
2022-11-29T18:12:41.194Z,42.5
2022-11-29T18:14:45.023Z,44
2022-11-29T18:16:48.983Z,48.2
2022-11-29T18:18:52.730Z,42.2
2022-11-29T18:20:59.387Z,55.9
2022-11-29T18:23:07.842Z,37
2022-11-29T18:25:37.191Z,38.5
2022-11-29T18:27:10.963Z,48.9
2022-11-29T18:29:14.794Z,55.8
2022-11-29T18:31:18.805Z,58.9
2022-11-29T18:33:22.536Z,40.3
2022-11-29T18:35:29.186Z,69.7
2022-11-29T18:41:40.757Z,41.3
2022-11-29T18:43:44.613Z,57.7
2022-11-29T18:45:48.572Z,36.9
2022-11-29T18:47:52.323Z,47
2022-11-29T18:49:59.040Z,47.2
2022-11-29T18:52:02.863Z,54.5
2022-11-29T18:54:06.718Z,50.6
2022-11-29T18:59:18.020Z,48.1
2022-11-29T19:01:21.741Z,41.9
2022-11-29T19:03:28.335Z,49.2
2022-11-29T19:05:32.180Z,44.6
2022-11-29T19:07:36.133Z,50
2022-11-29T19:09:39.932Z,69.8
2022-11-29T19:11:43.818Z,41.3
2022-11-29T19:13:47.635Z,50.4
2022-11-29T19:15:51.550Z,47.3
2022-11-29T19:17:58.169Z,55.2
2022-11-29T19:24:09.766Z,48.9
2022-11-29T19:26:13.618Z,41.7
2022-11-29T19:28:17.505Z,48.8
2022-11-29T19:30:21.375Z,44.4
2022-11-29T19:32:28.059Z,47.1
2022-11-29T19:34:31.880Z,70.3
2022-11-29T19:36:35.745Z,50.7
2022-11-29T19:38:39.615Z,46.1
2022-11-29T19:40:43.501Z,50.6
2022-11-29T19:42:47.327Z,35.6
2022-11-29T19:45:15.941Z,88.5
2022-11-29T19:46:57.863Z,45
2022-11-29T19:49:01.720Z,52.2
2022-11-29T19:51:05.581Z,54.5
2022-11-29T19:58:20.499Z,44.9
2022-11-29T20:00:27.187Z,39.4
2022-11-29T20:02:31.108Z,42
2022-11-29T20:04:34.873Z,54.5
2022-11-29T20:06:38.727Z,38.2
2022-11-29T20:08:42.581Z,57.4
2022-11-29T20:10:46.473Z,60.4
2022-11-29T20:12:50.317Z,58.6
2022-11-29T20:14:56.984Z,47.5
2022-11-29T20:17:00.835Z,37.4
2022-11-29T20:19:04.692Z,41.2
2022-11-29T20:21:08.576Z,40.7
2022-11-29T20:23:12.423Z,38.6
2022-11-29T20:25:16.295Z,38.3
2022-11-29T20:27:20.129Z,42.7
2022-11-29T20:29:26.824Z,42.4
2022-11-29T20:31:30.774Z,28
2022-11-29T20:33:34.533Z,38.5
2022-11-29T20:35:38.399Z,37.5
2022-11-29T20:37:42.247Z,36.4
2022-11-29T20:39:46.571Z,37.6
2022-11-29T20:41:49.973Z,40.7
2022-11-29T20:43:56.618Z,40.6
2022-11-29T20:46:00.498Z,42.9
2022-11-29T20:48:04.324Z,35.1
2022-11-29T20:52:37.827Z,33.4
2022-11-29T20:54:41.655Z,31.8
2022-11-29T20:56:48.331Z,46.4
2022-11-29T20:58:52.263Z,38.1
2022-11-29T21:00:56.206Z,46.4
2022-11-29T21:03:00.149Z,35.9
2022-11-29T21:05:03.947Z,34.5
2022-11-29T21:07:07.873Z,48.4
2022-11-29T21:09:11.710Z,38.7
2022-11-29T21:11:18.387Z,36.5
2022-11-29T21:13:22.247Z,38.3
2022-11-29T21:17:33.449Z,40.3
2022-11-29T21:19:33.993Z,35.9
2022-11-29T21:21:37.917Z,36.7
2022-11-29T21:23:41.789Z,32.8
2022-11-29T21:25:48.536Z,41.9
2022-11-29T21:27:52.366Z,38.4
2022-11-29T21:29:56.240Z,31.5
2022-11-29T21:32:00.088Z,34.2
2022-11-29T21:34:03.900Z,43.7
2022-11-29T21:36:07.764Z,38
2022-11-29T21:38:11.565Z,39.8
2022-11-29T21:40:18.234Z,35.9
2022-11-29T21:42:22.059Z,39.3
2022-11-29T21:44:25.919Z,31.7
2022-11-29T21:45:29.356Z,37.2
2022-11-29T21:47:33.171Z,35.6
2022-11-29T21:49:36.996Z,32.7
2022-11-29T21:51:40.839Z,30.1
2022-11-29T21:53:47.502Z,30
2022-11-29T21:55:51.347Z,30.6
2022-11-29T21:59:59.035Z,41.9
2022-11-29T22:06:10.546Z,36.9
2022-11-29T22:08:17.171Z,42.2
2022-11-29T22:10:20.998Z,39.9
2022-11-29T22:14:28.659Z,37.8
2022-11-29T22:18:36.437Z,29.2
2022-11-29T22:20:40.360Z,41.2
2022-11-29T22:22:47.005Z,37.7
2022-11-29T22:24:50.944Z,45.2
2022-11-29T22:26:54.800Z,35.4
2022-11-29T22:28:58.738Z,36.8
2022-11-29T22:31:03.332Z,28.6
2022-11-29T22:33:13.111Z,38.2
2022-11-29T22:35:11.046Z,35.9
2022-11-29T22:37:19.327Z,35.5
2022-11-29T22:39:23.102Z,32.6
2022-11-29T22:41:27.030Z,39.5
2022-11-29T22:42:30.337Z,28.2
2022-11-29T22:44:34.141Z,36.7
2022-11-29T22:46:38.014Z,34.5
2022-11-29T22:48:41.818Z,37.8
2022-11-29T22:50:48.434Z,36.6
2022-11-29T22:52:52.262Z,44.9
2022-11-29T22:54:59.893Z,32.2
2022-11-29T22:56:59.929Z,38.6
2022-11-29T22:59:03.847Z,40.7
2022-11-29T23:01:07.731Z,39.1
2022-11-29T23:03:11.479Z,32
2022-11-29T23:05:18.108Z,34.1
2022-11-29T23:07:21.980Z,42.8
2022-11-29T23:09:25.768Z,30.2
2022-11-29T23:11:29.589Z,39.9
2022-11-29T23:13:33.387Z,37.5
2022-11-29T23:15:37.215Z,42.8
2022-11-29T23:17:41.141Z,38.8
2022-11-29T23:19:47.773Z,30.2
2022-11-29T23:21:51.599Z,29.1
2022-11-29T23:25:59.328Z,34.1
2022-11-29T23:28:03.114Z,38.7
2022-11-29T23:30:06.966Z,37.3
2022-11-29T23:32:10.872Z,34.2
2022-11-29T23:34:17.482Z,31.8
2022-11-29T23:36:21.312Z,32.8
2022-11-29T23:38:25.141Z,31.3
2022-11-29T23:39:28.472Z,44.4
2022-11-29T23:41:32.399Z,33.1
2022-11-29T23:43:36.219Z,39.4
2022-11-29T23:45:40.145Z,37.2
2022-11-29T23:49:50.588Z,45.6
2022-11-29T23:53:58.328Z,37.3
2022-11-29T23:56:02.139Z,36.2
